Time;durP1;ratioP1;P1;durP2;ratioP2;P2;SDS_P1;SDS_P2;PMS_P1;PMS_P2;Temp;Humidity;BMP_temperature;BMP_pressure;BME280_temperature;BME280_humidity;BME280_pressure;Samples;Min_cycle;Max_cycle;Signal;HPM_P1;HPM_P2
2022/01/17 00:01:40;;;;;;;;;13.75;13.00;;;;;11.82;43.17;98607.47;6318369;22;101808;-79
2022/01/17 00:04:10;;;;;;;;;10.00;9.00;;;;;11.83;43.18;98611.84;6322365;22;102232;-77
2022/01/17 00:06:39;;;;;;;;;14.75;11.75;;;;;11.81;43.51;98603.94;6319706;22;103448;-79
2022/01/17 00:09:06;;;;;;;;;10.75;10.00;;;;;11.80;43.40;98604.13;6318218;22;101752;-78
2022/01/17 00:11:35;;;;;;;;;11.75;10.00;;;;;11.80;43.18;98598.72;6316351;22;101851;-77
2022/01/17 00:14:05;;;;;;;;;5.25;4.00;;;;;11.80;42.87;98604.13;6321035;22;102039;-77
2022/01/17 00:16:40;;;;;;;;;12.00;10.75;;;;;11.80;43.18;98602.25;6321497;22;102527;-78
2022/01/17 00:19:31;;;;;;;;;11.00;9.00;;;;;11.81;43.48;98600.38;6295873;22;102034;-78
2022/01/17 00:21:54;;;;;;;;;12.75;9.00;;;;;11.80;42.95;98596.00;6317585;22;101997;-78
2022/01/17 00:24:21;;;;;;;;;13.25;12.75;;;;;11.79;43.26;98597.91;6318064;22;101829;-78
2022/01/17 00:26:50;;;;;;;;;11.50;8.00;;;;;11.77;43.12;98583.72;6318685;22;103248;-77
2022/01/17 00:29:18;;;;;;;;;10.50;9.50;;;;;11.76;43.21;98576.63;6291926;22;102023;-78
2022/01/17 00:31:45;;;;;;;;;9.25;7.75;;;;;11.77;43.08;98572.06;6325839;22;102014;-78
2022/01/17 00:34:12;;;;;;;;;9.50;9.25;;;;;11.76;43.31;98573.91;6322614;22;102772;-77
2022/01/17 00:36:39;;;;;;;;;14.00;9.50;;;;;11.77;43.34;98577.47;6322230;22;103492;-79
2022/01/17 00:39:06;;;;;;;;;7.25;4.00;;;;;11.76;43.52;98575.78;6322030;22;101823;-79
2022/01/17 00:41:33;;;;;;;;;12.25;10.00;;;;;11.75;43.45;98574.16;6313213;22;101889;-78
2022/01/17 00:44:00;;;;;;;;;9.25;7.75;;;;;11.75;43.44;98572.28;6323975;22;102050;-78
2022/01/17 00:46:27;;;;;;;;;8.00;8.00;;;;;11.76;43.05;98570.38;6325326;22;103404;-78
2022/01/17 00:48:54;;;;;;;;;8.25;7.75;;;;;11.75;43.13;98574.16;6323351;22;101531;-78
2022/01/17 00:51:21;;;;;;;;;8.50;8.50;;;;;11.73;43.21;98566.22;6321519;22;103722;-78
2022/01/17 00:53:49;;;;;;;;;7.00;7.00;;;;;11.73;42.79;98559.97;6322616;22;101905;-79
2022/01/17 00:56:16;;;;;;;;;8.75;8.00;;;;;11.72;43.42;98552.84;6296452;22;103403;-78
2022/01/17 00:58:43;;;;;;;;;8.75;8.00;;;;;11.73;42.97;98563.50;6293215;22;101892;-77
2022/01/17 01:01:10;;;;;;;;;10.25;9.25;;;;;11.73;42.98;98555.38;6288287;22;101986;-76
2022/01/17 01:03:37;;;;;;;;;12.50;9.00;;;;;11.76;42.99;98559.53;6267330;22;102217;-77
2022/01/17 01:06:04;;;;;;;;;9.50;7.25;;;;;11.77;43.08;98548.50;6283426;22;103470;-78
2022/01/17 01:08:31;;;;;;;;;11.00;8.00;;;;;11.78;43.05;98546.63;6257611;22;101916;-78
2022/01/17 01:10:58;;;;;;;;;9.00;7.00;;;;;11.77;43.04;98550.38;6243565;22;101889;-78
2022/01/17 01:13:28;;;;;;;;;9.25;8.00;;;;;11.80;43.21;98547.25;6321483;22;101866;-77
2022/01/17 01:16:11;;;;;;;;;7.00;5.25;;;;;11.79;43.15;98548.31;6291672;22;103042;-77
2022/01/17 01:19:05;;;;;;;;;8.25;7.50;;;;;11.81;42.98;98527.25;6320155;22;103959;-77
2022/01/17 01:29:44;;;;;;;;;6.00;6.00;;;;;11.80;42.46;98520.16;6319196;22;101874;-85
2022/01/17 01:32:13;;;;;;;;;8.75;7.25;;;;;11.80;43.42;98520.16;6316894;22;101998;-85
2022/01/17 01:34:46;;;;;;;;;8.25;6.00;;;;;11.78;43.40;98523.09;6305782;22;102062;-84
2022/01/17 01:37:13;;;;;;;;;7.25;7.25;;;;;11.76;42.92;98511.63;6312449;22;103319;-84
2022/01/17 01:39:40;;;;;;;;;7.25;7.00;;;;;11.76;42.49;98500.78;6317217;22;102605;-85
2022/01/17 01:42:15;;;;;;;;;7.75;7.00;;;;;11.76;42.51;98500.78;6299529;22;102130;-84
2022/01/17 01:44:42;;;;;;;;;7.50;6.25;;;;;11.76;42.56;98494.53;6295951;22;102050;-85
2022/01/17 01:47:10;;;;;;;;;10.25;6.75;;;;;11.74;43.08;98486.63;6297810;22;103319;-85
2022/01/17 01:49:37;;;;;;;;;7.50;6.50;;;;;11.73;42.66;98487.69;6266223;22;101912;-85
2022/01/17 01:52:04;;;;;;;;;9.00;7.00;;;;;11.74;42.72;98474.97;6297900;22;108742;-85
2022/01/17 01:54:31;;;;;;;;;9.50;7.75;;;;;11.74;43.26;98475.81;6286138;22;102610;-84
2022/01/17 01:56:58;;;;;;;;;6.00;5.50;;;;;11.74;42.91;98475.81;6317699;22;103293;-84
2022/01/17 01:59:26;;;;;;;;;6.50;6.50;;;;;11.74;42.71;98464.97;6303349;22;101854;-84
2022/01/17 02:01:53;;;;;;;;;7.25;5.50;;;;;11.75;42.71;98460.38;6263017;22;101854;-83
2022/01/17 02:04:20;;;;;;;;;12.75;7.75;;;;;11.73;42.76;98457.03;6277970;22;101810;-79
2022/01/17 02:06:47;;;;;;;;;9.75;7.25;;;;;11.74;42.95;98454.13;6272586;22;103016;-85
2022/01/17 02:09:14;;;;;;;;;10.50;7.00;;;;;11.74;42.91;98439.75;6302290;22;101687;-84
2022/01/17 02:11:41;;;;;;;;;7.00;6.75;;;;;11.72;42.73;98439.09;6195934;22;102444;-85
2022/01/17 02:14:08;;;;;;;;;8.50;8.25;;;;;11.72;43.07;98434.53;6260658;22;101956;-85
2022/01/17 02:16:37;;;;;;;;;9.00;6.25;;;;;11.72;43.29;98439.97;6289424;22;103540;-85
2022/01/17 02:19:05;;;;;;;;;7.00;4.75;;;;;11.71;42.96;98432.84;6316658;22;102095;-82
2022/01/17 02:21:44;;;;;;;;;7.00;5.25;;;;;11.71;43.01;98434.75;6316470;22;101998;-82
2022/01/17 02:24:16;;;;;;;;;8.50;6.75;;;;;11.69;43.33;98420.56;6309130;22;104348;-82
2022/01/17 02:26:44;;;;;;;;;6.00;6.00;;;;;11.69;43.04;98418.69;6318502;22;103441;-82
2022/01/17 02:29:11;;;;;;;;;8.25;7.00;;;;;11.69;42.75;98412.44;6291871;22;108170;-82
2022/01/17 02:31:38;;;;;;;;;6.75;6.50;;;;;11.67;43.08;98414.50;6319461;22;102064;-81
2022/01/17 02:34:05;;;;;;;;;7.00;4.00;;;;;11.67;42.88;98404.50;6318460;22;102299;-82
2022/01/17 02:36:33;;;;;;;;;6.25;6.00;;;;;11.66;42.63;98408.28;6320007;22;103388;-82
2022/01/17 02:39:02;;;;;;;;;7.00;6.75;;;;;11.66;43.20;98405.59;6315035;22;101870;-82
2022/01/17 02:41:33;;;;;;;;;9.00;4.75;;;;;11.66;42.62;98391.22;6316933;22;101747;-83
2022/01/17 02:44:01;;;;;;;;;9.25;4.00;;;;;11.65;42.94;98395.78;6285639;22;102149;-82
2022/01/17 02:46:29;;;;;;;;;7.00;4.75;;;;;11.66;42.93;98391.22;6314772;22;103637;-82
2022/01/17 02:48:58;;;;;;;;;6.00;5.25;;;;;11.66;42.58;98385.78;6316149;22;102043;-83
2022/01/17 02:51:25;;;;;;;;;4.00;4.00;;;;;11.66;43.22;98380.38;6325807;22;101622;-82
2022/01/17 02:53:52;;;;;;;;;5.25;5.00;;;;;11.64;43.34;98384.13;6321578;22;102072;-83
2022/01/17 02:56:19;;;;;;;;;4.50;4.00;;;;;11.64;43.43;98391.41;6325640;22;103473;-83
2022/01/17 02:58:48;;;;;;;;;2.25;0.75;;;;;11.63;42.74;98385.16;6288829;22;101895;-83
2022/01/17 03:01:17;;;;;;;;;8.00;6.50;;;;;11.64;43.43;98383.28;6313593;22;101760;-83
2022/01/17 03:03:44;;;;;;;;;4.00;3.00;;;;;11.66;42.73;98391.22;6324194;22;101738;-82
2022/01/17 03:06:12;;;;;;;;;7.75;7.00;;;;;11.70;42.89;98392.44;6320800;22;103344;-82
2022/01/17 03:08:39;;;;;;;;;5.00;4.00;;;;;11.71;42.58;98386.78;6320940;22;101832;-83
2022/01/17 03:11:07;;;;;;;;;7.00;6.00;;;;;11.72;42.99;98390.34;6319685;22;105409;-81
2022/01/17 03:13:36;;;;;;;;;6.00;4.50;;;;;11.75;43.13;98385.38;6293533;22;102301;-83
2022/01/17 03:16:15;;;;;;;;;6.00;4.50;;;;;11.77;42.94;98380.56;6285508;22;103620;-76
2022/01/17 03:18:51;;;;;;;;;3.75;3.00;;;;;11.82;43.12;98383.47;6319210;22;103446;-76
2022/01/17 03:21:19;;;;;;;;;4.00;3.50;;;;;11.86;43.04;98375.72;6317310;22;102110;-76
2022/01/17 03:23:49;;;;;;;;;4.75;3.00;;;;;11.90;42.67;98382.38;6292460;22;101972;-76
2022/01/17 03:26:16;;;;;;;;;5.00;4.00;;;;;11.92;42.88;98374.88;6316397;22;103491;-76
2022/01/17 03:28:43;;;;;;;;;4.75;3.00;;;;;11.96;42.76;98382.38;6318634;22;103100;-76
2022/01/17 03:31:10;;;;;;;;;4.00;4.00;;;;;12.00;42.34;98377.34;6318402;22;101719;-76
2022/01/17 03:33:37;;;;;;;;;4.00;3.25;;;;;12.03;42.40;98379.59;6319115;22;101968;-76
2022/01/17 03:36:05;;;;;;;;;4.00;4.00;;;;;12.06;43.14;98376.50;6315645;22;103449;-76
2022/01/17 03:38:32;;;;;;;;;3.25;3.25;;;;;12.08;42.11;98372.50;6316555;22;101888;-76
2022/01/17 03:41:00;;;;;;;;;3.75;3.25;;;;;12.08;42.72;98368.97;6319359;22;101796;-76
2022/01/17 03:43:27;;;;;;;;;3.50;3.00;;;;;12.13;42.92;98369.16;6323359;22;102154;-76
2022/01/17 03:45:57;;;;;;;;;8.75;4.75;;;;;12.14;42.38;98361.84;6322733;22;103578;-76
2022/01/17 03:48:24;;;;;;;;;3.00;3.00;;;;;12.14;42.60;98362.69;6318416;22;101622;-76
2022/01/17 03:50:51;;;;;;;;;3.00;3.00;;;;;12.17;43.15;98361.41;6327597;22;101902;-76
2022/01/17 03:53:18;;;;;;;;;4.75;3.25;;;;;12.18;42.37;98347.66;6320176;22;101997;-76
2022/01/17 03:55:45;;;;;;;;;5.00;3.00;;;;;12.21;42.75;98347.19;6323595;22;103379;-76
2022/01/17 03:58:12;;;;;;;;;3.75;3.00;;;;;12.23;42.09;98350.53;6275294;22;102374;-76
2022/01/17 04:00:42;;;;;;;;;4.00;3.00;;;;;12.27;42.64;98351.75;6322181;22;101876;-76
2022/01/17 04:03:09;;;;;;;;;3.25;3.00;;;;;12.30;42.84;98351.31;6321690;22;101755;-76
2022/01/17 04:05:37;;;;;;;;;4.00;3.00;;;;;12.32;42.48;98351.94;6292545;22;103655;-76
2022/01/17 04:08:04;;;;;;;;;4.75;3.00;;;;;12.33;42.33;98350.91;6324492;22;101758;-76
2022/01/17 04:10:32;;;;;;;;;5.25;3.00;;;;;12.36;42.06;98347.75;6320326;22;102198;-76
2022/01/17 04:13:03;;;;;;;;;5.25;3.25;;;;;12.39;42.56;98350.00;6318596;22;101955;-76
2022/01/17 04:15:31;;;;;;;;;4.00;3.75;;;;;12.43;42.74;98350.41;6322325;22;103109;-76
2022/01/17 04:17:58;;;;;;;;;3.00;3.00;;;;;12.43;41.80;98340.38;6325551;22;102039;-76
2022/01/17 04:20:27;;;;;;;;;6.00;3.00;;;;;12.45;42.93;98349.16;6323511;22;102034;-76
2022/01/17 04:22:59;;;;;;;;;1.00;1.00;;;;;12.47;42.72;98352.44;6318678;22;102273;-76
2022/01/17 04:25:29;;;;;;;;;7.00;4.00;;;;;12.49;42.10;98365.81;6321927;22;103233;-76
2022/01/17 04:27:59;;;;;;;;;4.00;2.50;;;;;12.51;42.57;98351.00;6319477;22;102103;-76
2022/01/17 04:30:27;;;;;;;;;2.00;2.00;;;;;12.52;42.12;98355.34;6320853;22;101628;-76
2022/01/17 04:32:54;;;;;;;;;3.00;2.25;;;;;12.51;41.87;98348.28;6321197;22;102117;-76
2022/01/17 04:35:22;;;;;;;;;3.00;3.00;;;;;12.52;42.15;98360.75;6327182;22;103217;-76
2022/01/17 04:37:54;;;;;;;;;3.00;3.00;;;;;12.53;42.26;98361.59;6319460;22;101960;-77
2022/01/17 04:40:21;;;;;;;;;2.75;2.00;;;;;12.52;41.72;98347.19;6320999;22;101767;-76
2022/01/17 04:42:50;;;;;;;;;2.25;2.25;;;;;12.52;42.66;98340.94;6319029;22;101952;-76
2022/01/17 04:45:19;;;;;;;;;2.00;2.00;;;;;12.53;42.84;98335.31;6286469;22;104029;-76
2022/01/17 04:47:48;;;;;;;;;3.75;3.00;;;;;12.53;41.86;98323.63;6316213;22;101824;-76
2022/01/17 04:50:17;;;;;;;;;3.00;2.75;;;;;12.52;42.81;98336.34;6314984;22;101891;-76
2022/01/17 04:52:46;;;;;;;;;4.00;3.00;;;;;12.50;42.17;98319.50;6305660;22;103198;-76
2022/01/17 04:55:14;;;;;;;;;3.75;2.50;;;;;12.51;41.84;98304.88;6306528;22;103412;-76
2022/01/17 04:57:42;;;;;;;;;4.00;1.00;;;;;12.49;41.93;98309.69;6297678;22;101927;-76
2022/01/17 05:00:11;;;;;;;;;3.00;3.00;;;;;12.49;41.92;98295.28;6310976;22;103526;-76
2022/01/17 05:02:38;;;;;;;;;3.00;3.00;;;;;12.49;42.55;98301.56;6290547;22;102103;-76
2022/01/17 05:05:06;;;;;;;;;1.75;1.75;;;;;12.49;42.41;98292.59;6308014;22;103435;-76
2022/01/17 05:07:33;;;;;;;;;4.50;3.00;;;;;12.49;41.87;98289.88;6312918;22;102016;-77
2022/01/17 05:10:01;;;;;;;;;3.25;3.25;;;;;12.49;42.20;98289.88;6317797;22;101975;-76
2022/01/17 05:12:28;;;;;;;;;4.00;3.00;;;;;12.50;42.38;98284.22;6318820;22;101839;-76
2022/01/17 05:14:56;;;;;;;;;3.00;3.00;;;;;12.50;42.38;98275.25;6307334;22;103309;-76
2022/01/17 05:19:59;;;;;;;;;5.25;2.00;;;;;12.49;41.76;98274.44;6305247;22;101863;-76
2022/01/17 05:22:30;;;;;;;;;3.00;3.00;;;;;12.46;41.82;98277.59;6269621;22;102274;-78
2022/01/17 05:24:58;;;;;;;;;2.00;1.75;;;;;12.45;42.03;98265.09;6297944;22;103400;-78
2022/01/17 05:27:25;;;;;;;;;5.25;3.75;;;;;12.45;42.15;98261.53;6320631;22;103122;-78
2022/01/17 05:29:52;;;;;;;;;4.00;3.00;;;;;12.45;41.88;98259.66;6293315;22;101911;-78
2022/01/17 05:32:20;;;;;;;;;2.00;2.00;;;;;12.44;42.58;98263.41;6314993;22;101771;-78
2022/01/17 05:34:48;;;;;;;;;2.25;2.25;;;;;12.43;42.58;98248.19;6321784;22;103329;-78
2022/01/17 05:37:15;;;;;;;;;3.00;2.00;;;;;12.42;42.75;98246.56;6323509;22;103569;-78
2022/01/17 05:39:43;;;;;;;;;3.00;3.00;;;;;12.42;42.21;98237.59;6314082;22;101872;-78
2022/01/17 05:42:14;;;;;;;;;2.25;2.00;;;;;12.36;42.58;98228.44;6317515;22;102240;-78
2022/01/17 05:44:42;;;;;;;;;3.00;2.00;;;;;12.33;41.86;98231.59;6318821;22;103423;-78
2022/01/17 05:47:09;;;;;;;;;2.75;2.25;;;;;12.32;42.26;98235.38;6316739;22;101788;-78
2022/01/17 05:49:36;;;;;;;;;3.00;2.00;;;;;12.31;41.70;98222.03;6318443;22;102012;-78
2022/01/17 05:52:04;;;;;;;;;3.00;2.00;;;;;12.30;41.93;98226.63;6288878;22;101748;-78
2022/01/17 05:54:31;;;;;;;;;2.00;2.00;;;;;12.30;42.34;98233.91;6320828;22;103325;-78
2022/01/17 05:56:58;;;;;;;;;3.00;3.00;;;;;12.31;42.52;98232.88;6289478;22;101766;-78
2022/01/17 05:59:25;;;;;;;;;2.25;2.00;;;;;12.33;42.93;98236.19;6321394;22;101914;-78
2022/01/17 06:01:52;;;;;;;;;4.00;3.00;;;;;12.32;42.52;98235.38;6323417;22;101715;-78
2022/01/17 06:04:20;;;;;;;;;3.75;3.00;;;;;12.32;42.72;98224.53;6291293;22;104005;-78
2022/01/17 06:06:48;;;;;;;;;3.00;2.00;;;;;12.33;42.48;98225.34;6284462;22;102195;-78
2022/01/17 06:09:15;;;;;;;;;3.50;3.00;;;;;12.30;42.85;98221.19;6299673;22;101801;-78
2022/01/17 06:11:42;;;;;;;;;3.75;3.00;;;;;12.30;42.61;98220.34;6293443;22;101764;-78
2022/01/17 06:14:14;;;;;;;;;3.00;2.75;;;;;12.29;42.64;98224.94;6295926;22;103424;-78
2022/01/17 06:16:42;;;;;;;;;3.00;3.00;;;;;12.27;41.83;98221.63;6318878;22;101960;-77
2022/01/17 06:19:09;;;;;;;;;3.00;2.75;;;;;12.26;42.61;98214.56;6315932;22;101908;-78
2022/01/17 06:21:36;;;;;;;;;2.50;2.50;;;;;12.26;41.70;98209.13;6292586;22;102106;-78
2022/01/17 06:24:05;;;;;;;;;3.00;3.00;;;;;12.23;42.71;98203.31;6307681;22;103314;-78
2022/01/17 06:26:33;;;;;;;;;3.75;3.00;;;;;12.25;41.88;98201.22;6309368;22;101896;-78
2022/01/17 06:29:00;;;;;;;;;3.00;3.00;;;;;12.25;42.58;98188.50;6316395;22;102261;-78
2022/01/17 06:31:29;;;;;;;;;2.75;2.00;;;;;12.27;42.25;98191.81;6289320;22;101741;-78
2022/01/17 06:33:56;;;;;;;;;3.50;3.00;;;;;12.31;42.58;98179.47;6312962;22;103316;-78
2022/01/17 06:36:23;;;;;;;;;3.00;3.00;;;;;12.34;42.56;98168.19;6322490;22;101827;-78
2022/01/17 06:38:50;;;;;;;;;2.50;2.00;;;;;12.38;42.53;98166.69;6320340;22;102957;-78
2022/01/17 06:41:18;;;;;;;;;2.50;2.00;;;;;12.41;42.70;98163.53;6326600;22;101996;-78
2022/01/17 06:43:45;;;;;;;;;3.75;2.00;;;;;12.43;42.30;98172.25;6325328;22;103554;-78
2022/01/17 06:46:12;;;;;;;;;4.00;3.00;;;;;12.43;41.84;98169.56;6329627;22;101889;-78
2022/01/17 06:48:40;;;;;;;;;4.00;3.00;;;;;12.47;42.43;98161.81;6325197;22;101968;-78
2022/01/17 06:51:07;;;;;;;;;3.25;2.75;;;;;12.50;42.28;98170.34;6323513;22;101832;-78
2022/01/17 06:53:34;;;;;;;;;4.00;2.00;;;;;12.54;42.78;98170.72;6316330;22;103325;-78
2022/01/17 06:56:01;;;;;;;;;4.25;3.25;;;;;12.51;42.11;98147.59;6321015;22;102044;-78
2022/01/17 06:58:28;;;;;;;;;4.00;3.25;;;;;12.56;41.80;98143.38;6291347;22;102215;-78
2022/01/17 07:00:55;;;;;;;;;3.25;3.00;;;;;12.60;42.05;98128.31;6322516;22;102049;-78
2022/01/17 07:03:22;;;;;;;;;2.50;2.00;;;;;12.64;41.88;98124.09;6266056;22;108219;-78
2022/01/17 07:05:50;;;;;;;;;5.00;3.00;;;;;12.64;42.43;98119.50;6290469;22;101722;-78
2022/01/17 07:08:17;;;;;;;;;2.00;2.00;;;;;12.66;41.90;98105.69;6286037;22;101629;-78
2022/01/17 07:10:44;;;;;;;;;3.00;2.00;;;;;12.70;42.60;98102.28;6268652;22;101793;-79
2022/01/17 07:13:11;;;;;;;;;3.75;3.00;;;;;12.72;41.89;98110.22;6297123;22;103673;-79
2022/01/17 07:15:38;;;;;;;;;4.00;3.00;;;;;12.74;42.38;98124.41;6326376;22;102077;-78
2022/01/17 07:18:06;;;;;;;;;4.50;3.75;;;;;12.75;41.73;98143.13;6328023;22;101954;-78
2022/01/17 07:20:33;;;;;;;;;3.00;2.25;;;;;12.80;42.35;98150.59;6324866;22;101631;-78
2022/01/17 07:23:01;;;;;;;;;2.75;2.00;;;;;12.82;41.58;98160.19;6324431;22;104494;-79
2022/01/17 07:25:28;;;;;;;;;3.75;3.00;;;;;12.85;42.62;98170.59;6327407;22;101716;-79
2022/01/17 07:27:56;;;;;;;;;3.50;3.50;;;;;12.87;42.56;98178.50;6324386;22;101783;-78
2022/01/17 07:30:23;;;;;;;;;3.00;3.00;;;;;12.89;42.27;98179.09;6297095;22;101835;-78
2022/01/17 07:32:50;;;;;;;;;2.00;2.00;;;;;12.92;41.46;98184.88;6322201;22;103140;-78
2022/01/17 07:35:17;;;;;;;;;3.00;2.00;;;;;12.93;42.15;98145.84;6317962;22;101923;-78
2022/01/17 07:37:44;;;;;;;;;3.25;3.00;;;;;12.95;42.40;98113.06;6320822;22;101953;-78
2022/01/17 07:40:12;;;;;;;;;3.50;3.50;;;;;12.97;42.50;98079.22;6323809;22;102087;-78
2022/01/17 07:42:39;;;;;;;;;3.25;2.00;;;;;12.98;41.55;98075.44;6319398;22;103483;-78
2022/01/17 07:45:12;;;;;;;;;3.75;3.00;;;;;13.02;42.43;98077.69;6295678;22;102191;-78
2022/01/17 07:50:07;;;;;;;;;0.75;0.00;;;;;13.05;41.57;98082.69;6318600;22;102034;-78
2022/01/17 07:52:35;;;;;;;;;4.00;3.00;;;;;13.07;41.52;98086.81;6322242;22;103495;-78
2022/01/17 07:55:03;;;;;;;;;3.25;2.75;;;;;13.09;41.55;98082.00;6288406;22;102127;-78
2022/01/17 07:57:30;;;;;;;;;3.00;3.00;;;;;13.11;42.42;98066.31;6280789;22;101786;-78
2022/01/17 07:59:57;;;;;;;;;2.00;2.00;;;;;13.11;42.06;98030.19;6256484;22;102170;-78
2022/01/17 08:02:29;;;;;;;;;3.00;2.00;;;;;13.13;41.41;98028.94;6287493;22;103486;-78
2022/01/17 08:04:57;;;;;;;;;1.25;1.25;;;;;13.16;42.02;98011.34;6286707;22;103305;-78
2022/01/17 08:07:24;;;;;;;;;3.00;3.00;;;;;13.18;42.35;98004.63;6285803;22;101762;-78
2022/01/17 08:09:56;;;;;;;;;2.00;2.00;;;;;13.20;42.03;98002.50;6280876;22;101923;-78
2022/01/17 08:12:23;;;;;;;;;1.75;1.75;;;;;13.23;41.52;97988.47;6283699;22;107834;-78
2022/01/17 08:14:50;;;;;;;;;3.00;2.00;;;;;13.25;42.13;97966.50;6290916;22;101888;-78
2022/01/17 08:17:17;;;;;;;;;2.00;2.00;;;;;13.27;41.39;97950.81;6287662;22;102387;-78
2022/01/17 08:19:45;;;;;;;;;3.00;2.00;;;;;13.30;41.50;97953.06;6285811;22;101952;-78
2022/01/17 08:22:12;;;;;;;;;2.00;2.00;;;;;13.30;41.29;97961.22;6285905;22;103211;-78
2022/01/17 08:24:39;;;;;;;;;2.00;2.00;;;;;13.32;41.45;97976.22;6291728;22;101980;-78
2022/01/17 08:27:06;;;;;;;;;0.00;0.00;;;;;13.33;42.24;97994.13;6282110;22;101961;-78
2022/01/17 08:29:34;;;;;;;;;4.00;3.00;;;;;13.35;41.14;97980.34;6295307;22;102110;-78
2022/01/17 08:32:05;;;;;;;;;2.25;1.75;;;;;13.36;42.03;97999.13;6294991;22;103277;-78
2022/01/17 08:34:32;;;;;;;;;2.25;2.00;;;;;13.37;42.08;97995.31;6296757;22;101598;-78
2022/01/17 08:36:59;;;;;;;;;2.75;2.00;;;;;13.39;42.02;97981.53;6289592;22;101825;-78
2022/01/17 08:39:26;;;;;;;;;3.00;2.00;;;;;13.40;42.15;97940.56;6294068;22;102002;-78
2022/01/17 08:41:54;;;;;;;;;3.25;1.50;;;;;13.44;41.85;97945.53;6285876;22;108003;-78
2022/01/17 08:44:21;;;;;;;;;3.25;3.00;;;;;13.44;41.49;97930.06;6294882;22;101786;-78
2022/01/17 08:46:48;;;;;;;;;2.00;2.00;;;;;13.47;41.82;97907.00;6293904;22;101814;-78
2022/01/17 08:49:16;;;;;;;;;4.00;2.00;;;;;13.49;41.01;97915.78;6295405;22;101684;-78
2022/01/17 08:51:45;;;;;;;;;2.00;2.00;;;;;13.51;41.93;97909.03;6296233;22;103588;-78
2022/01/17 08:54:12;;;;;;;;;3.25;2.75;;;;;13.53;41.04;97892.50;6293884;22;102243;-86
2022/01/17 08:56:39;;;;;;;;;4.00;3.00;;;;;13.54;41.46;97899.59;6294029;22;101887;-85
2022/01/17 08:59:06;;;;;;;;;4.50;2.50;;;;;13.57;41.49;97904.53;6292734;22;101846;-85
2022/01/17 09:01:33;;;;;;;;;3.50;2.50;;;;;13.58;41.58;97903.47;6292754;22;103375;-85
2022/01/17 09:04:01;;;;;;;;;2.00;2.00;;;;;13.57;41.94;97896.38;6291644;22;102152;-85
2022/01/17 09:06:28;;;;;;;;;3.00;1.50;;;;;13.60;41.98;97880.44;6295692;22;101705;-85
2022/01/17 09:08:55;;;;;;;;;1.00;1.00;;;;;13.61;41.50;97854.94;6302885;22;101815;-86
2022/01/17 09:11:22;;;;;;;;;2.00;1.00;;;;;13.63;41.97;97871.00;6290800;22;109248;-85
2022/01/17 09:13:50;;;;;;;;;3.00;2.00;;;;;13.64;42.03;97894.41;6295284;22;101744;-85
2022/01/17 09:16:17;;;;;;;;;3.50;3.25;;;;;13.65;41.94;97877.84;6289143;22;101983;-78
2022/01/17 09:18:44;;;;;;;;;1.50;1.50;;;;;13.67;41.90;97869.47;6294540;22;101724;-78
2022/01/17 09:21:11;;;;;;;;;3.00;2.00;;;;;13.68;41.42;97873.84;6294970;22;103323;-79
2022/01/17 09:23:39;;;;;;;;;4.00;3.00;;;;;13.68;41.06;97849.38;6292378;22;101771;-78
2022/01/17 09:26:06;;;;;;;;;2.00;2.00;;;;;13.69;41.82;97851.00;6288681;22;101986;-78
2022/01/17 09:28:33;;;;;;;;;3.00;2.50;;;;;13.73;41.01;97868.50;6296024;22;101628;-78
2022/01/17 09:31:00;;;;;;;;;5.00;2.00;;;;;13.71;41.45;97855.16;6292521;22;103548;-78
2022/01/17 09:33:27;;;;;;;;;3.00;2.00;;;;;13.74;41.55;97849.25;6292625;22;108102;-78
2022/01/17 09:35:54;;;;;;;;;2.25;2.00;;;;;13.77;41.37;97848.78;6297257;22;101908;-78
2022/01/17 09:38:21;;;;;;;;;2.00;1.00;;;;;13.78;41.02;97836.00;6295916;22;101790;-79
2022/01/17 09:40:48;;;;;;;;;3.00;2.00;;;;;13.80;41.77;97828.44;6292326;22;103407;-78
2022/01/17 09:43:36;;;;;;;;;2.50;2.00;;;;;13.82;40.89;97801.88;6292469;22;101499;-78
2022/01/17 09:46:04;;;;;;;;;2.00;2.00;;;;;13.82;41.19;97810.81;6288840;22;102056;-78
2022/01/17 09:48:36;;;;;;;;;1.25;1.25;;;;;13.84;41.83;97788.84;6293180;22;102101;-78
2022/01/17 09:51:17;;;;;;;;;2.00;2.00;;;;;13.85;41.42;97798.66;6293435;22;103313;-78
2022/01/17 09:53:45;;;;;;;;;3.50;3.00;;;;;13.87;41.05;97788.34;6286932;22;101659;-78
2022/01/17 09:56:12;;;;;;;;;3.00;2.25;;;;;13.88;41.75;97800.06;6327977;22;101954;-78
2022/01/17 09:58:40;;;;;;;;;2.25;1.75;;;;;13.89;41.67;97801.72;6326497;22;101691;-78
2022/01/17 10:01:07;;;;;;;;;3.25;2.75;;;;;13.90;40.89;97779.75;6296587;22;103349;-78
2022/01/17 10:03:39;;;;;;;;;2.00;2.00;;;;;13.93;41.49;97779.25;6300906;22;102251;-78
2022/01/17 10:06:06;;;;;;;;;3.50;2.00;;;;;13.93;41.45;97768.38;6328016;22;101934;-78
2022/01/17 10:08:33;;;;;;;;;3.00;2.00;;;;;13.95;40.95;97766.25;6329820;22;102098;-78
2022/01/17 10:11:01;;;;;;;;;2.50;2.25;;;;;13.96;40.99;97740.69;6321289;22;103399;-78
2022/01/17 10:13:38;;;;;;;;;5.75;1.75;;;;;13.97;40.98;97742.34;6328195;22;101908;-78
2022/01/17 10:16:09;;;;;;;;;4.25;2.75;;;;;14.01;41.11;97745.41;6326265;22;101981;-78
2022/01/17 10:19:02;;;;;;;;;3.50;3.50;;;;;14.01;41.37;97743.50;6325549;22;102020;-78
2022/01/17 10:21:38;;;;;;;;;3.25;2.50;;;;;14.02;40.99;97758.75;6324601;22;108025;-85
2022/01/17 10:34:56;;;;;;;;;2.75;2.00;;;;;14.06;41.10;97754.47;6313295;22;102012;-85
2022/01/17 10:37:27;;;;;;;;;3.25;2.25;;;;;14.07;41.14;97756.13;6317689;22;104313;-86
2022/01/17 10:40:02;;;;;;;;;2.50;2.50;;;;;14.08;41.00;97732.50;6319976;22;101654;-86
2022/01/17 10:42:42;;;;;;;;;3.50;3.00;;;;;14.09;41.16;97720.56;6321245;22;107940;-85
2022/01/17 10:45:14;;;;;;;;;2.75;2.75;;;;;14.10;41.46;97727.63;6328736;22;102083;-86
2022/01/17 10:47:45;;;;;;;;;2.00;2.00;;;;;14.10;41.58;97731.19;6326399;22;101774;-86
2022/01/17 10:50:18;;;;;;;;;3.00;3.00;;;;;14.11;41.54;97708.38;6252477;22;102341;-86
2022/01/17 10:52:50;;;;;;;;;2.75;2.00;;;;;14.12;41.05;97693.72;6294032;22;103491;-86
2022/01/17 10:55:19;;;;;;;;;2.00;2.00;;;;;14.14;40.92;97680.69;6319526;22;107800;-85
2022/01/17 10:57:48;;;;;;;;;3.00;2.00;;;;;14.14;40.90;97677.13;6322093;22;102021;-85
2022/01/17 11:00:56;;;;;;;;;2.00;2.00;;;;;14.16;41.76;97675.00;6322051;22;102088;-85
2022/01/17 11:03:31;;;;;;;;;2.50;2.50;;;;;14.17;41.10;97690.25;6323040;22;107789;-86
2022/01/17 11:06:03;;;;;;;;;4.00;2.25;;;;;14.16;41.34;97673.13;6311753;22;104253;-84
2022/01/17 11:08:32;;;;;;;;;4.25;3.00;;;;;14.17;40.88;97661.19;6310123;22;101506;-77
2022/01/17 11:11:01;;;;;;;;;2.00;2.00;;;;;14.19;41.41;97663.63;6319833;22;102145;-85
2022/01/17 11:13:31;;;;;;;;;3.00;2.25;;;;;14.19;41.34;97674.50;6326796;22;103266;-85
2022/01/17 11:16:13;;;;;;;;;3.50;3.00;;;;;14.19;41.51;97669.91;6287837;22;101918;-83
2022/01/17 11:18:43;;;;;;;;;3.25;3.00;;;;;14.20;41.62;97671.53;6321990;22;101853;-86
2022/01/17 11:21:14;;;;;;;;;2.00;2.00;;;;;14.21;41.59;97678.63;6320435;22;101741;-85
2022/01/17 11:23:43;;;;;;;;;2.25;1.25;;;;;14.21;41.81;97675.91;6318748;22;103200;-86
2022/01/17 11:26:10;;;;;;;;;2.50;2.50;;;;;14.22;41.58;97669.41;6323553;22;101774;-85
2022/01/17 11:28:37;;;;;;;;;1.25;1.25;;;;;14.23;41.56;97675.66;6318729;22;102688;-86
2022/01/17 11:31:07;;;;;;;;;2.25;1.50;;;;;14.22;41.67;97676.75;6328990;22;101629;-86
2022/01/17 11:33:34;;;;;;;;;2.00;2.00;;;;;14.24;41.12;97675.41;6318797;22;103533;-85
2022/01/17 11:36:02;;;;;;;;;2.00;1.00;;;;;14.24;41.25;97652.84;6290785;22;101820;-85
2022/01/17 11:38:30;;;;;;;;;1.50;1.50;;;;;14.26;41.00;97640.66;6328881;22;101832;-85
2022/01/17 11:40:58;;;;;;;;;4.00;3.50;;;;;14.26;41.41;97637.13;6322290;22;102335;-85
2022/01/17 11:43:34;;;;;;;;;1.75;1.75;;;;;14.27;41.12;97642.28;6328348;22;108140;-86
2022/01/17 11:46:25;;;;;;;;;1.25;1.00;;;;;14.28;40.84;97624.06;6319681;22;102010;-85
2022/01/17 11:48:58;;;;;;;;;4.75;1.50;;;;;14.29;40.75;97648.31;6307750;22;101818;-86
2022/01/17 11:51:51;;;;;;;;;2.00;2.00;;;;;14.29;41.44;97651.03;6321667;22;101735;-85
2022/01/17 11:54:20;;;;;;;;;3.50;1.50;;;;;14.29;40.88;97637.44;6299190;22;108210;-86
2022/01/17 11:56:48;;;;;;;;;2.00;2.00;;;;;14.29;41.05;97612.97;6319510;22;101835;-86